Time;durP1;ratioP1;P1;durP2;ratioP2;P2;SDS_P1;SDS_P2;PMS_P1;PMS_P2;Temp;Humidity;BMP_temperature;BMP_pressure;BME280_temperature;BME280_humidity;BME280_pressure;Samples;Min_cycle;Max_cycle;Signal;HPM_P1;HPM_P2
2022/01/07 00:02:03;;;;;;;7.83;5.20;;;;;;;2.64;78.08;101189.00;5115638;28;20192;-72
2022/01/07 00:04:32;;;;;;;5.13;4.87;;;;;;;2.78;76.89;101194.16;5115088;28;20259;-72
2022/01/07 00:06:59;;;;;;;9.00;4.90;;;;;;;2.81;76.27;101181.25;5115081;28;20205;-72
2022/01/07 00:09:25;;;;;;;4.83;4.63;;;;;;;2.77;77.05;101176.94;5114883;28;20589;-72
2022/01/07 00:11:52;;;;;;;5.40;5.07;;;;;;;2.84;76.98;101188.13;5114888;28;20189;-72
2022/01/07 00:14:18;;;;;;;5.07;4.57;;;;;;;2.77;77.28;101176.94;5096623;28;20246;-72
2022/01/07 00:16:47;;;;;;;4.60;4.43;;;;;;;2.75;77.36;101176.09;5114513;28;20205;-72
2022/01/07 00:19:15;;;;;;;4.40;4.20;;;;;;;2.73;77.74;101175.22;5115338;28;20181;-73
2022/01/07 00:21:42;;;;;;;6.80;4.67;;;;;;;2.71;77.40;101156.25;5114692;28;20192;-73
2022/01/07 00:24:08;;;;;;;4.83;4.53;;;;;;;2.79;77.54;101159.72;5114666;28;20246;-73
2022/01/07 00:26:35;;;;;;;5.40;5.03;;;;;;;2.84;77.09;101164.84;5114945;28;20543;-72
2022/01/07 00:29:02;;;;;;;15.33;4.90;;;;;;;2.86;77.55;101150.19;5096334;28;20220;-73
2022/01/07 00:31:28;;;;;;;10.83;6.10;;;;;;;2.72;77.83;101161.44;5096372;28;20189;-72
2022/01/07 00:33:55;;;;;;;11.00;5.60;;;;;;;2.72;77.77;101138.19;5114772;28;20542;-72
2022/01/07 00:36:21;;;;;;;5.93;5.17;;;;;;;2.80;77.59;101145.06;5114358;28;20246;-72
2022/01/07 00:38:48;;;;;;;5.40;5.07;;;;;;;2.85;77.23;101140.72;5114419;28;20679;-72
2022/01/07 00:41:14;;;;;;;5.83;4.93;;;;;;;2.89;77.41;101134.69;5114345;28;20182;-72
2022/01/07 00:43:41;;;;;;;5.90;5.40;;;;;;;2.82;77.68;101128.66;5114884;28;20666;-72
2022/01/07 00:46:12;;;;;;;8.27;5.50;;;;;;;2.78;77.81;101121.75;5114290;28;20201;-73
2022/01/07 00:48:38;;;;;;;8.93;4.47;;;;;;;2.85;77.98;101115.72;5114217;28;20553;-73
2022/01/07 00:51:05;;;;;;;5.87;5.53;;;;;;;2.75;78.69;101116.63;5096659;28;20563;-73
2022/01/07 00:53:31;;;;;;;7.27;5.00;;;;;;;2.72;78.73;101112.31;5114174;28;20250;-72
2022/01/07 00:55:58;;;;;;;7.47;6.27;;;;;;;2.74;78.95;101100.25;5114258;28;20694;-72
2022/01/07 00:58:24;;;;;;;6.20;5.53;;;;;;;2.75;78.64;101101.09;5114103;28;20182;-72
2022/01/07 01:00:51;;;;;;;6.30;5.77;;;;;;;2.71;79.07;101100.25;5114314;28;20185;-72
2022/01/07 01:03:17;;;;;;;8.30;5.93;;;;;;;2.68;79.01;101099.41;5114006;28;20213;-72
2022/01/07 01:05:45;;;;;;;7.50;6.17;;;;;;;2.69;79.20;101090.78;5114191;28;20585;-72
2022/01/07 01:08:12;;;;;;;6.33;5.47;;;;;;;2.72;79.10;101088.19;5113975;28;20185;-71
2022/01/07 01:10:38;;;;;;;5.20;4.93;;;;;;;2.79;79.21;101092.50;5114406;28;20206;-72
2022/01/07 01:13:05;;;;;;;6.77;6.03;;;;;;;2.78;79.22;101093.31;5114463;28;20185;-72
2022/01/07 01:15:31;;;;;;;9.43;5.47;;;;;;;2.78;79.00;101090.75;5114039;28;20205;-73
2022/01/07 01:17:59;;;;;;;5.30;5.10;;;;;;;2.78;79.22;101097.63;5113863;28;20577;-73
2022/01/07 01:20:26;;;;;;;8.87;5.70;;;;;;;2.83;78.56;101088.16;5113834;28;20189;-72
2022/01/07 01:22:53;;;;;;;5.77;5.47;;;;;;;2.85;78.63;101087.25;5114346;28;20186;-72
2022/01/07 01:25:19;;;;;;;5.10;4.70;;;;;;;2.80;78.80;101078.69;5114210;28;20189;-74
2022/01/07 01:27:46;;;;;;;7.47;6.33;;;;;;;2.81;78.95;101085.56;5115394;28;20189;-73
2022/01/07 01:30:17;;;;;;;5.73;5.23;;;;;;;2.83;78.60;101073.50;5120531;28;20600;-72
2022/01/07 01:32:48;;;;;;;7.13;6.00;;;;;;;2.83;78.81;101081.25;5103118;28;20185;-73
2022/01/07 01:35:17;;;;;;;5.50;5.00;;;;;;;2.91;78.96;101066.56;5121003;28;20182;-74
2022/01/07 01:37:43;;;;;;;9.53;6.03;;;;;;;2.81;79.32;101064.03;5121066;28;20192;-73
2022/01/07 01:40:10;;;;;;;6.17;5.50;;;;;;;2.75;79.53;101059.75;5102405;28;20190;-72
2022/01/07 01:42:38;;;;;;;5.37;4.80;;;;;;;2.79;79.63;101053.69;5102165;28;20193;-72
2022/01/07 01:45:08;;;;;;;6.97;5.90;;;;;;;2.81;79.67;101044.22;5102766;28;20234;-73
2022/01/07 01:47:35;;;;;;;6.60;5.30;;;;;;;2.82;79.59;101038.16;5102332;28;20181;-71
2022/01/07 01:50:04;;;;;;;5.80;5.30;;;;;;;2.79;79.43;101043.34;5120298;28;20213;-71
2022/01/07 01:52:30;;;;;;;6.73;4.83;;;;;;;2.76;79.16;101041.63;5120336;28;20185;-71
2022/01/07 01:54:57;;;;;;;5.67;5.33;;;;;;;2.68;79.32;101039.94;5120316;28;20185;-72
2022/01/07 01:57:23;;;;;;;6.80;5.67;;;;;;;2.79;79.44;101035.59;5120254;28;20261;-71
2022/01/07 01:59:50;;;;;;;6.93;5.13;;;;;;;2.88;79.16;101030.38;5102592;28;20185;-72
2022/01/07 02:02:16;;;;;;;5.70;5.20;;;;;;;2.81;79.75;101028.69;5136400;27;20201;-72
2022/01/07 02:04:43;;;;;;;5.17;4.77;;;;;;;2.84;79.50;101026.06;5120490;28;20279;-71
2022/01/07 02:07:12;;;;;;;8.70;5.23;;;;;;;2.87;79.25;101028.66;5120177;28;20209;-72
2022/01/07 02:09:38;;;;;;;6.83;5.97;;;;;;;2.89;79.21;101020.91;5102304;28;20205;-71
2022/01/07 02:12:07;;;;;;;7.00;5.50;;;;;;;2.87;79.53;101028.66;5120729;28;20185;-71
2022/01/07 02:14:35;;;;;;;6.80;5.70;;;;;;;2.85;79.76;101014.00;5120386;28;20654;-72
2022/01/07 02:17:07;;;;;;;6.20;5.90;;;;;;;2.75;80.15;101026.13;5120057;28;20262;-72
2022/01/07 02:19:34;;;;;;;6.57;5.87;;;;;;;2.73;80.24;101018.38;5120254;28;20165;-72
2022/01/07 02:22:02;;;;;;;5.87;5.47;;;;;;;2.80;80.47;101010.59;5120414;28;20588;-71
2022/01/07 02:24:29;;;;;;;14.17;5.93;;;;;;;2.78;80.41;101018.34;5102571;28;20185;-71
2022/01/07 02:26:56;;;;;;;5.27;5.07;;;;;;;2.71;80.73;101007.16;5101662;28;20544;-71
2022/01/07 02:29:23;;;;;;;8.27;6.00;;;;;;;2.71;80.87;100999.41;5119951;28;20250;-71
2022/01/07 02:31:50;;;;;;;5.47;4.97;;;;;;;2.73;81.50;100995.13;5120072;28;20196;-71
2022/01/07 02:34:16;;;;;;;4.93;4.53;;;;;;;2.69;81.83;100997.72;5102663;28;20406;-71
2022/01/07 02:36:42;;;;;;;8.57;5.17;;;;;;;2.66;82.71;101005.50;5119946;28;20209;-72
2022/01/07 02:39:09;;;;;;;10.47;6.10;;;;;;;2.59;83.11;101001.22;5119619;28;20188;-71
2022/01/07 02:41:35;;;;;;;6.60;4.93;;;;;;;2.63;83.38;100989.97;5116360;28;20182;-71
2022/01/07 02:44:02;;;;;;;6.90;6.20;;;;;;;2.52;84.05;100997.78;5117014;28;20197;-71
2022/01/07 02:46:29;;;;;;;9.60;5.37;;;;;;;2.41;84.96;100990.06;5116710;28;20229;-72
2022/01/07 02:48:57;;;;;;;5.67;5.00;;;;;;;2.45;85.60;100981.44;5116531;28;20269;-72
2022/01/07 02:51:23;;;;;;;10.90;5.10;;;;;;;2.37;86.19;100985.78;5116474;28;20213;-72
2022/01/07 02:53:50;;;;;;;6.17;5.77;;;;;;;2.34;86.83;100970.28;5116766;28;20546;-72
2022/01/07 02:56:16;;;;;;;8.47;5.67;;;;;;;2.31;86.88;100978.06;5116390;28;20209;-72
2022/01/07 02:58:43;;;;;;;6.47;5.90;;;;;;;2.18;87.82;100978.97;5116656;28;20192;-72
2022/01/07 03:01:09;;;;;;;8.67;6.67;;;;;;;2.09;88.29;100979.84;5116620;28;20190;-72
2022/01/07 03:03:36;;;;;;;6.87;6.40;;;;;;;2.16;88.52;100970.38;5116288;28;20271;-72
2022/01/07 03:06:02;;;;;;;6.27;5.80;;;;;;;2.12;89.23;100968.63;5116337;28;20208;-73
2022/01/07 03:08:29;;;;;;;7.30;6.77;;;;;;;2.16;89.41;100970.38;5116166;28;20703;-72
2022/01/07 03:10:55;;;;;;;9.57;6.50;;;;;;;2.04;89.87;100960.06;5116640;28;20205;-72
2022/01/07 03:13:22;;;;;;;7.67;6.40;;;;;;;2.11;89.88;100961.75;5116345;28;20192;-72
2022/01/07 03:15:48;;;;;;;7.13;6.70;;;;;;;1.93;90.42;100948.03;5098248;28;20213;-72
2022/01/07 03:18:15;;;;;;;6.60;6.17;;;;;;;1.99;90.00;100941.13;5115967;28;20193;-73
2022/01/07 03:20:42;;;;;;;8.67;8.03;;;;;;;1.87;90.57;100937.72;5115865;28;20193;-72
2022/01/07 03:23:11;;;;;;;7.87;7.37;;;;;;;1.92;90.80;100935.97;5116463;28;20541;-72
2022/01/07 03:25:43;;;;;;;11.67;8.27;;;;;;;1.98;90.87;100929.06;5116008;28;20204;-73
2022/01/07 03:28:10;;;;;;;9.97;8.60;;;;;;;1.86;91.22;100925.69;5115818;28;20185;-73
2022/01/07 03:30:37;;;;;;;6.83;6.53;;;;;;;1.85;91.16;100907.59;5115686;28;20601;-73
2022/01/07 03:33:05;;;;;;;8.70;7.90;;;;;;;1.84;91.70;100913.63;5115716;28;20181;-73
2022/01/07 03:35:32;;;;;;;8.07;7.30;;;;;;;1.82;91.86;100911.06;5097268;28;20208;-74
2022/01/07 03:37:58;;;;;;;8.03;7.37;;;;;;;1.62;92.74;100900.75;5097323;28;20661;-73
2022/01/07 03:40:25;;;;;;;9.90;7.27;;;;;;;1.68;92.44;100886.13;5116117;28;20200;-72
2022/01/07 03:42:52;;;;;;;7.80;7.20;;;;;;;1.66;92.53;100870.66;5116118;28;20192;-72
2022/01/07 03:45:20;;;;;;;12.83;7.70;;;;;;;1.61;92.96;100878.41;5115390;28;20197;-73
2022/01/07 03:47:47;;;;;;;11.57;8.00;;;;;;;1.53;93.46;100869.81;5115473;28;20189;-72
2022/01/07 03:50:17;;;;;;;8.53;6.93;;;;;;;1.56;93.23;100867.22;5097235;28;20720;-72
2022/01/07 03:52:44;;;;;;;8.80;7.90;;;;;;;1.69;93.42;100877.53;5114172;28;20189;-72
2022/01/07 03:55:14;;;;;;;8.13;7.43;;;;;;;1.59;93.37;100853.47;5115207;28;20189;-74
2022/01/07 03:57:41;;;;;;;7.17;6.63;;;;;;;1.63;93.39;100857.75;5115826;28;20184;-73
2022/01/07 04:00:10;;;;;;;8.83;7.30;;;;;;;1.40;94.08;100859.53;5115546;28;20186;-72
2022/01/07 04:02:41;;;;;;;9.17;7.47;;;;;;;1.39;94.47;100858.66;5096844;28;20272;-72
2022/01/07 04:05:08;;;;;;;8.80;6.50;;;;;;;1.40;94.60;100856.94;5096712;28;20219;-74
2022/01/07 04:07:35;;;;;;;7.83;7.13;;;;;;;1.52;94.33;100847.47;5115164;28;20207;-74
2022/01/07 04:10:04;;;;;;;8.37;7.80;;;;;;;1.57;94.13;100845.75;5114915;28;20216;-74
2022/01/07 04:12:30;;;;;;;8.97;6.80;;;;;;;1.54;94.19;100837.13;5114978;28;20242;-73
2022/01/07 04:15:09;;;;;;;8.23;6.80;;;;;;;1.68;93.65;100831.94;5096885;28;20195;-73
2022/01/07 04:17:36;;;;;;;7.70;7.20;;;;;;;1.66;93.79;100821.63;5115196;28;20195;-73
2022/01/07 04:20:05;;;;;;;8.47;7.67;;;;;;;1.69;93.59;100821.59;5114890;28;20196;-73
2022/01/07 04:22:33;;;;;;;9.70;6.53;;;;;;;1.72;93.37;100824.19;5114746;28;20189;-73
2022/01/07 04:25:02;;;;;;;7.37;6.67;;;;;;;1.77;92.90;100812.13;5115010;28;20169;-73
2022/01/07 04:27:30;;;;;;;6.60;5.93;;;;;;;1.67;93.40;100823.34;5114548;28;20213;-73
2022/01/07 04:29:57;;;;;;;6.70;6.30;;;;;;;1.70;93.42;100818.16;5114835;28;20185;-73
2022/01/07 04:32:24;;;;;;;7.13;6.40;;;;;;;1.86;92.72;100825.00;5115174;28;20185;-73
2022/01/07 04:34:50;;;;;;;7.77;7.17;;;;;;;1.83;92.09;100816.41;5115038;28;20193;-73
2022/01/07 04:37:17;;;;;;;7.23;6.80;;;;;;;1.88;91.84;100820.69;5096083;28;20217;-73
2022/01/07 04:39:44;;;;;;;6.60;6.27;;;;;;;1.94;91.25;100822.38;5115037;28;20185;-73
2022/01/07 04:42:11;;;;;;;5.83;5.53;;;;;;;1.92;91.03;100814.63;5113528;28;20645;-73
2022/01/07 04:44:40;;;;;;;5.63;5.23;;;;;;;1.86;91.31;100814.69;5114913;28;20185;-73
2022/01/07 04:47:08;;;;;;;6.87;5.77;;;;;;;1.98;90.59;100810.31;5096225;28;20597;-73
2022/01/07 04:49:35;;;;;;;5.40;5.20;;;;;;;2.01;90.73;100805.16;5114260;28;20549;-73
2022/01/07 04:52:06;;;;;;;11.83;5.77;;;;;;;2.01;90.64;100806.00;5114126;28;20224;-73
2022/01/07 04:54:33;;;;;;;5.30;5.07;;;;;;;2.03;89.91;100806.84;5114706;28;20189;-73
2022/01/07 04:57:00;;;;;;;4.90;4.80;;;;;;;1.99;90.09;100814.59;5114338;28;20207;-73
2022/01/07 04:59:26;;;;;;;6.30;5.70;;;;;;;1.97;90.17;100809.44;5114092;28;20193;-73
2022/01/07 05:01:54;;;;;;;8.47;6.07;;;;;;;2.09;89.33;100793.91;5096006;28;20646;-73
2022/01/07 05:04:21;;;;;;;5.77;5.37;;;;;;;2.07;89.55;100813.72;5114182;28;20181;-72
2022/01/07 05:06:48;;;;;;;8.40;6.87;;;;;;;2.00;89.85;100818.91;5114881;28;20213;-72
2022/01/07 05:09:16;;;;;;;6.93;6.50;;;;;;;2.05;89.94;100806.84;5113964;28;20589;-72
2022/01/07 05:11:51;;;;;;;5.87;5.67;;;;;;;2.00;90.44;100809.47;5095882;28;20201;-72
2022/01/07 05:14:18;;;;;;;8.13;6.80;;;;;;;2.05;90.09;100806.84;5114528;28;20172;-73
2022/01/07 05:16:46;;;;;;;9.87;6.63;;;;;;;2.05;90.35;100812.84;5114429;28;20708;-73
2022/01/07 05:19:12;;;;;;;6.73;6.60;;;;;;;1.93;90.81;100811.22;5114135;28;20234;-73
2022/01/07 05:21:39;;;;;;;7.20;6.73;;;;;;;2.03;90.66;100809.44;5114003;28;20554;-73
2022/01/07 05:24:06;;;;;;;7.57;6.97;;;;;;;2.12;90.50;100808.50;5096063;28;20542;-73
2022/01/07 05:26:33;;;;;;;6.60;6.10;;;;;;;2.04;91.02;100805.13;5114072;28;20631;-72
2022/01/07 05:28:59;;;;;;;6.97;5.80;;;;;;;1.98;91.19;100805.16;5113746;28;20188;-73
2022/01/07 05:31:26;;;;;;;10.00;6.07;;;;;;;1.99;91.43;100805.13;5114235;28;20208;-73
2022/01/07 05:33:54;;;;;;;6.73;5.87;;;;;;;1.98;91.41;100805.16;5114294;28;20165;-73
2022/01/07 05:36:21;;;;;;;6.20;5.60;;;;;;;1.92;91.89;100806.88;5113627;28;20210;-73
2022/01/07 05:38:49;;;;;;;7.27;6.67;;;;;;;1.91;92.04;100801.72;5113654;28;20192;-73
2022/01/07 05:41:16;;;;;;;7.03;6.53;;;;;;;1.80;93.05;100800.94;5113633;28;20184;-73
2022/01/07 05:43:43;;;;;;;7.03;6.77;;;;;;;1.70;93.12;100794.94;5113594;28;20207;-73
2022/01/07 05:46:14;;;;;;;6.73;6.37;;;;;;;1.65;93.15;100788.97;5113433;28;20283;-73
2022/01/07 05:48:43;;;;;;;7.67;6.23;;;;;;;1.60;93.61;100786.38;5113557;28;20170;-73
2022/01/07 05:51:10;;;;;;;6.77;5.97;;;;;;;1.72;93.62;100788.06;5113440;28;20209;-73
2022/01/07 05:53:36;;;;;;;6.73;5.93;;;;;;;1.64;94.12;100780.34;5095790;28;20189;-73
2022/01/07 05:56:04;;;;;;;6.73;6.23;;;;;;;1.56;94.58;100781.22;5113666;28;20217;-73
2022/01/07 05:58:31;;;;;;;5.47;5.03;;;;;;;1.63;94.88;100782.91;5113471;28;20238;-73
2022/01/07 06:00:57;;;;;;;9.17;7.13;;;;;;;1.67;94.38;100783.78;5113454;28;20181;-74
2022/01/07 06:03:24;;;;;;;8.63;6.50;;;;;;;1.66;94.29;100772.59;5113431;28;20217;-74
2022/01/07 06:05:50;;;;;;;6.63;6.33;;;;;;;1.51;94.58;100777.81;5113571;28;20217;-74
2022/01/07 06:08:17;;;;;;;6.97;6.57;;;;;;;1.57;94.61;100782.94;5113567;28;20650;-74
2022/01/07 06:10:45;;;;;;;7.60;6.90;;;;;;;1.53;94.50;100776.94;5113273;28;20209;-73
2022/01/07 06:13:11;;;;;;;7.83;6.60;;;;;;;1.54;94.63;100776.06;5095357;28;20189;-74
2022/01/07 06:15:38;;;;;;;6.73;6.23;;;;;;;1.32;95.15;100777.88;5115473;28;20209;-75
2022/01/07 06:18:05;;;;;;;7.83;7.30;;;;;;;1.30;95.66;100771.88;5117214;28;20239;-74
2022/01/07 06:20:31;;;;;;;7.87;7.63;;;;;;;1.30;95.75;100769.28;5116941;28;20230;-73
2022/01/07 06:22:58;;;;;;;10.87;7.13;;;;;;;1.28;95.68;100770.13;5116973;28;20193;-73
2022/01/07 06:25:25;;;;;;;6.70;6.20;;;;;;;1.35;95.52;100767.53;5117267;28;20215;-74
2022/01/07 06:27:51;;;;;;;9.00;7.83;;;;;;;1.36;95.65;100769.28;5117319;28;20576;-73
2022/01/07 06:30:18;;;;;;;8.27;7.67;;;;;;;1.31;95.83;100765.84;5117129;28;20551;-74
2022/01/07 06:32:44;;;;;;;7.70;6.97;;;;;;;1.31;95.84;100776.16;5117224;28;20189;-74
2022/01/07 06:35:11;;;;;;;6.97;6.47;;;;;;;1.44;95.83;100778.72;5117021;28;20185;-75
2022/01/07 06:37:38;;;;;;;6.87;6.40;;;;;;;1.36;95.93;100774.44;5116787;28;20538;-74
2022/01/07 06:40:06;;;;;;;7.70;7.13;;;;;;;1.37;95.95;100776.13;5117091;28;20530;-75
2022/01/07 06:42:33;;;;;;;7.80;7.03;;;;;;;1.40;95.88;100779.56;5116958;28;20242;-75
2022/01/07 06:44:59;;;;;;;7.00;6.80;;;;;;;1.49;95.91;100770.06;5116612;28;20193;-74
2022/01/07 06:47:26;;;;;;;9.10;8.40;;;;;;;1.47;95.94;100768.38;5116446;28;20216;-75
2022/01/07 06:49:53;;;;;;;8.20;7.73;;;;;;;1.43;96.04;100769.22;5117352;28;20174;-74
2022/01/07 06:52:19;;;;;;;7.27;6.73;;;;;;;1.52;96.28;100764.06;5117045;28;20224;-74
2022/01/07 06:54:46;;;;;;;7.93;7.53;;;;;;;1.54;96.36;100758.00;5116495;28;20673;-74
2022/01/07 06:57:12;;;;;;;7.63;7.23;;;;;;;1.60;95.99;100758.00;5116435;28;20716;-74
2022/01/07 06:59:39;;;;;;;8.73;7.97;;;;;;;1.57;96.26;100762.28;5116393;28;20185;-74
2022/01/07 07:02:07;;;;;;;8.50;7.77;;;;;;;1.63;95.83;100760.56;5098308;28;20219;-74
2022/01/07 07:04:34;;;;;;;8.13;7.63;;;;;;;1.61;95.82;100759.72;5116290;28;20708;-74
2022/01/07 07:07:00;;;;;;;8.83;8.13;;;;;;;1.63;95.75;100767.44;5116210;28;20614;-75
2022/01/07 07:09:27;;;;;;;10.40;9.13;;;;;;;1.57;96.24;100759.72;5116358;28;20184;-74
2022/01/07 07:11:53;;;;;;;9.23;8.17;;;;;;;1.64;96.25;100763.97;5116435;28;20204;-74
2022/01/07 07:14:19;;;;;;;7.77;7.03;;;;;;;1.62;96.12;100763.13;5116578;28;20181;-74
2022/01/07 07:16:46;;;;;;;8.10;7.43;;;;;;;1.63;96.03;100770.00;5116127;28;20209;-73
2022/01/07 07:19:12;;;;;;;10.43;8.23;;;;;;;1.77;95.89;100764.78;5116257;28;20188;-73
2022/01/07 07:21:40;;;;;;;8.63;7.87;;;;;;;1.76;95.70;100768.25;5116487;28;20568;-74
2022/01/07 07:24:07;;;;;;;7.97;7.47;;;;;;;1.74;95.83;100770.84;5116403;28;20190;-74
2022/01/07 07:26:33;;;;;;;11.07;8.17;;;;;;;1.76;95.59;100769.09;5115507;28;20201;-73
2022/01/07 07:29:00;;;;;;;7.70;6.90;;;;;;;1.81;95.52;100769.09;5115808;28;20193;-74
2022/01/07 07:31:27;;;;;;;8.60;8.00;;;;;;;1.87;95.62;100767.34;5115711;28;20201;-72
2022/01/07 07:33:55;;;;;;;8.63;8.00;;;;;;;1.85;95.42;100766.47;5097669;28;20189;-74
2022/01/07 07:36:30;;;;;;;8.63;7.93;;;;;;;1.89;95.45;100769.91;5115561;28;20205;-74
2022/01/07 07:39:03;;;;;;;8.27;7.87;;;;;;;2.02;95.51;100765.53;5115830;28;20179;-74
2022/01/07 07:41:30;;;;;;;9.07;8.17;;;;;;;2.07;94.95;100771.53;5097748;28;20189;-75
2022/01/07 07:43:57;;;;;;;8.63;8.00;;;;;;;2.06;95.13;100765.50;5115805;28;20185;-74
2022/01/07 07:46:26;;;;;;;8.20;7.67;;;;;;;2.10;95.10;100766.34;5115452;28;20202;-74
2022/01/07 07:48:54;;;;;;;8.77;8.17;;;;;;;2.13;94.83;100761.16;5115370;28;20181;-74
2022/01/07 07:51:21;;;;;;;8.67;7.87;;;;;;;2.09;95.12;100755.16;5115515;28;20267;-73
2022/01/07 07:53:47;;;;;;;8.63;7.97;;;;;;;2.15;95.33;100762.03;5115548;28;20204;-73
2022/01/07 07:56:16;;;;;;;12.30;7.43;;;;;;;2.23;95.40;100764.56;5115211;28;20258;-74
2022/01/07 07:58:44;;;;;;;9.27;8.30;;;;;;;2.28;95.16;100758.47;5115177;28;20225;-74
2022/01/07 08:01:12;;;;;;;7.60;7.20;;;;;;;2.20;95.08;100761.09;5115421;28;20177;-74
2022/01/07 08:03:40;;;;;;;8.17;7.27;;;;;;;2.28;95.05;100768.81;5115376;28;20275;-74
2022/01/07 08:06:06;;;;;;;8.33;6.50;;;;;;;2.33;95.30;100769.63;5114996;28;20204;-74
2022/01/07 08:08:34;;;;;;;8.53;7.67;;;;;;;2.39;94.74;100763.59;5115234;28;20190;-74
2022/01/07 08:11:03;;;;;;;7.97;7.50;;;;;;;2.45;94.63;100758.38;5115474;28;20209;-74
2022/01/07 08:15:58;;;;;;;7.17;6.77;;;;;;;2.46;94.54;100763.53;5114827;28;20728;-75
2022/01/07 08:18:29;;;;;;;7.90;7.30;;;;;;;2.51;94.78;100763.50;5115105;28;20193;-74
2022/01/07 08:20:58;;;;;;;8.27;7.70;;;;;;;2.42;94.77;100760.97;5114674;28;20189;-74
2022/01/07 08:23:25;;;;;;;9.07;6.90;;;;;;;2.48;94.71;100766.94;5114723;28;20185;-74
2022/01/07 08:25:52;;;;;;;6.97;6.57;;;;;;;2.46;94.27;100768.69;5114959;28;20211;-74
2022/01/07 08:28:22;;;;;;;7.50;7.10;;;;;;;2.55;94.12;100769.50;5114619;28;20196;-74
2022/01/07 08:31:22;;;;;;;7.13;6.73;;;;;;;2.55;94.10;100761.72;5114467;28;20193;-74
2022/01/07 08:36:34;;;;;;;8.73;8.00;;;;;;;2.57;93.75;100765.16;5114429;28;20205;-74
2022/01/07 08:39:02;;;;;;;9.30;7.67;;;;;;;2.61;93.97;100762.53;5113706;28;20250;-74
2022/01/07 08:41:30;;;;;;;12.33;7.70;;;;;;;2.73;93.49;100761.59;5114892;28;20173;-74
2022/01/07 08:43:57;;;;;;;8.07;6.43;;;;;;;2.64;93.74;100748.72;5096218;28;20199;-74
2022/01/07 08:46:24;;;;;;;6.93;6.53;;;;;;;2.75;93.74;100754.69;5114253;28;20232;-74
2022/01/07 08:48:51;;;;;;;7.67;7.07;;;;;;;2.71;93.23;100746.06;5114854;28;20213;-74
2022/01/07 08:51:18;;;;;;;10.47;6.70;;;;;;;2.70;93.26;100739.19;5114129;28;20209;-74
2022/01/07 08:53:50;;;;;;;7.60;6.97;;;;;;;2.73;93.27;100746.09;5115006;28;20583;-73
2022/01/07 08:56:16;;;;;;;8.40;7.77;;;;;;;2.71;93.34;100740.06;5114096;28;20198;-74
2022/01/07 08:58:43;;;;;;;7.63;7.10;;;;;;;2.71;93.74;100734.88;5114655;28;20234;-74
2022/01/07 09:01:10;;;;;;;7.77;7.10;;;;;;;2.72;93.50;100737.47;5114396;28;20618;-74
2022/01/07 09:03:37;;;;;;;9.73;8.93;;;;;;;2.84;93.49;100731.31;5114118;28;20207;-74
2022/01/07 09:06:03;;;;;;;7.63;6.67;;;;;;;2.88;93.04;100722.66;5113976;28;20205;-74
2022/01/07 09:08:31;;;;;;;7.70;7.13;;;;;;;2.87;93.12;100733.03;5113941;28;20192;-74
2022/01/07 09:10:57;;;;;;;7.43;6.80;;;;;;;2.94;92.73;100730.38;5114187;28;20542;-74
2022/01/07 09:13:23;;;;;;;6.33;5.83;;;;;;;3.01;92.29;100733.75;5113932;28;20189;-74
2022/01/07 09:15:50;;;;;;;7.83;6.83;;;;;;;2.93;92.83;100736.41;5113756;28;20213;-74
2022/01/07 09:18:18;;;;;;;5.97;5.60;;;;;;;3.05;92.46;100743.19;5114103;28;20192;-74
2022/01/07 09:20:45;;;;;;;6.53;6.23;;;;;;;3.02;92.42;100733.72;5114210;28;20674;-74
2022/01/07 09:23:12;;;;;;;6.63;6.23;;;;;;;3.05;92.17;100738.00;5095870;28;20185;-74
2022/01/07 09:25:39;;;;;;;5.87;5.67;;;;;;;3.13;92.01;100735.34;5129575;27;20217;-74
2022/01/07 09:28:07;;;;;;;8.33;7.83;;;;;;;3.13;91.85;100741.38;5113689;28;20196;-74
2022/01/07 09:30:35;;;;;;;6.97;6.40;;;;;;;3.13;91.92;100740.50;5114014;28;20193;-74
2022/01/07 09:33:02;;;;;;;5.87;5.53;;;;;;;3.13;91.95;100741.38;5113589;28;20571;-74
2022/01/07 09:35:29;;;;;;;6.00;5.40;;;;;;;3.12;92.01;100749.16;5113833;28;20601;-74
2022/01/07 09:37:56;;;;;;;6.57;6.20;;;;;;;3.14;92.06;100747.41;5113606;28;20185;-74
2022/01/07 09:40:22;;;;;;;5.80;5.50;;;;;;;3.16;92.30;100743.09;5114232;28;20188;-75
2022/01/07 09:42:58;;;;;;;6.90;5.80;;;;;;;3.17;92.25;100747.38;5113615;28;20177;-74
2022/01/07 09:45:27;;;;;;;6.70;5.80;;;;;;;3.19;91.82;100756.84;5114001;28;20668;-74
2022/01/07 09:47:55;;;;;;;5.17;4.87;;;;;;;3.28;91.94;100748.09;5113474;28;20182;-74
2022/01/07 09:50:23;;;;;;;4.90;4.80;;;;;;;3.29;92.05;100742.09;5116857;28;20190;-74
2022/01/07 09:52:50;;;;;;;5.13;4.93;;;;;;;3.25;91.95;100740.38;5117905;28;20536;-74
2022/01/07 09:55:17;;;;;;;4.87;4.77;;;;;;;3.25;92.01;100740.38;5118073;28;20180;-75
2022/01/07 09:57:43;;;;;;;6.20;5.90;;;;;;;3.26;92.30;100731.75;5117606;28;20193;-74
2022/01/07 10:00:11;;;;;;;5.13;4.93;;;;;;;3.32;91.75;100729.09;5118257;28;20178;-73
2022/01/07 10:02:38;;;;;;;5.00;4.80;;;;;;;3.27;91.93;100725.69;5117761;28;20238;-74
2022/01/07 10:05:18;;;;;;;6.77;5.80;;;;;;;3.52;91.23;100724.53;5117383;28;20202;-74
2022/01/07 10:07:45;;;;;;;5.13;4.93;;;;;;;3.44;91.36;100726.38;5117358;28;20191;-74
2022/01/07 10:10:14;;;;;;;5.93;5.73;;;;;;;3.48;91.61;100738.38;5117311;28;20184;-73
2022/01/07 10:12:51;;;;;;;4.90;4.70;;;;;;;3.49;91.51;100734.06;5117664;28;20267;-74
2022/01/07 10:15:21;;;;;;;5.10;4.83;;;;;;;3.56;91.38;100733.97;5117459;28;20189;-75
2022/01/07 10:18:05;;;;;;;5.33;5.00;;;;;;;3.62;91.38;100740.81;5117087;28;20669;-74
2022/01/07 10:20:43;;;;;;;4.70;4.60;;;;;;;3.56;91.47;100727.94;5099151;28;20202;-74
2022/01/07 10:23:23;;;;;;;4.50;4.50;;;;;;;3.64;91.28;100733.03;5117512;28;20178;-74
2022/01/07 10:25:56;;;;;;;8.03;4.20;;;;;;;3.74;90.91;100726.88;5117354;28;20269;-75
2022/01/07 10:28:31;;;;;;;6.10;5.87;;;;;;;3.69;91.14;100726.06;5117026;28;20184;-74
2022/01/07 10:31:00;;;;;;;4.90;4.70;;;;;;;3.76;91.24;100722.50;5117505;28;20560;-74
2022/01/07 10:33:29;;;;;;;5.60;5.07;;;;;;;3.90;90.75;100727.50;5116843;28;20270;-74
2022/01/07 10:36:06;;;;;;;5.47;5.00;;;;;;;4.00;90.42;100732.56;5116779;28;20207;-75
2022/01/07 10:38:45;;;;;;;4.80;4.40;;;;;;;4.00;90.10;100722.19;5099340;28;20181;-74
2022/01/07 10:41:13;;;;;;;5.13;4.80;;;;;;;3.97;90.47;100722.22;5116733;28;20182;-74
2022/01/07 10:43:40;;;;;;;4.83;4.73;;;;;;;4.08;90.15;100716.91;5116923;28;20182;-74
2022/01/07 10:46:24;;;;;;;5.10;4.93;;;;;;;4.06;89.47;100721.22;5116562;28;20205;-74
2022/01/07 10:48:57;;;;;;;7.93;5.10;;;;;;;4.11;89.62;100715.09;5116947;28;20173;-74
2022/01/07 10:51:27;;;;;;;4.57;4.47;;;;;;;4.18;90.13;100715.88;5116550;28;20172;-74
2022/01/07 10:53:54;;;;;;;4.83;4.73;;;;;;;4.14;89.20;100712.47;5116449;28;20199;-74
2022/01/07 10:56:23;;;;;;;6.03;5.53;;;;;;;4.12;89.57;100708.19;5116826;28;20207;-75
2022/01/07 10:58:52;;;;;;;5.93;5.73;;;;;;;4.15;89.07;100700.38;5116700;28;20176;-74
2022/01/07 11:01:21;;;;;;;5.33;5.13;;;;;;;4.24;88.84;100699.38;5116009;28;20559;-74
2022/01/07 11:03:50;;;;;;;5.33;4.90;;;;;;;4.20;88.63;100701.16;5116700;28;20248;-74
2022/01/07 11:06:17;;;;;;;5.67;5.20;;;;;;;4.18;88.93;100686.50;5116188;28;20240;-74
2022/01/07 11:08:47;;;;;;;5.17;5.07;;;;;;;4.30;88.62;100700.13;5116196;28;20242;-74
2022/01/07 11:11:14;;;;;;;5.67;5.47;;;;;;;4.19;88.45;100690.81;5116458;28;20643;-74
2022/01/07 11:13:42;;;;;;;6.73;6.17;;;;;;;4.20;88.59;100687.34;5116018;28;20211;-74
2022/01/07 11:16:09;;;;;;;6.13;5.93;;;;;;;4.25;88.58;100686.38;5115979;28;20578;-73
2022/01/07 11:18:40;;;;;;;6.57;6.27;;;;;;;4.26;88.63;100682.91;5115997;28;20281;-74
2022/01/07 11:21:08;;;;;;;5.63;5.43;;;;;;;4.28;88.71;100696.69;5116148;28;20198;-73
2022/01/07 11:23:39;;;;;;;5.73;5.33;;;;;;;4.32;88.65;100687.16;5116034;28;20687;-74
2022/01/07 11:26:08;;;;;;;5.87;5.67;;;;;;;4.36;88.18;100687.09;5115809;28;20224;-74
2022/01/07 11:28:36;;;;;;;7.53;6.80;;;;;;;4.33;88.27;100684.53;5115753;28;20204;-74
2022/01/07 11:31:09;;;;;;;5.43;5.00;;;;;;;4.31;88.48;100678.53;5116173;28;20540;-74
2022/01/07 11:33:37;;;;;;;5.40;5.10;;;;;;;4.33;87.96;100679.34;5115954;28;20201;-74
2022/01/07 11:36:04;;;;;;;6.13;5.70;;;;;;;4.36;88.30;100683.63;5115934;28;20221;-74
2022/01/07 11:38:43;;;;;;;6.00;5.63;;;;;;;4.31;88.53;100665.56;5115884;28;20181;-74
2022/01/07 11:41:34;;;;;;;4.53;4.43;;;;;;;4.42;88.29;100671.41;5115917;28;20175;-74
2022/01/07 11:44:10;;;;;;;4.20;4.10;;;;;;;4.32;88.10;100669.00;5115707;28;20193;-73